sensor_id;sensor_type;location;lat;lon;timestamp;pressure;altitude;pressure_sealevel;temperature;humidity
37206;BME280;23099;42.636;23.198;2023-04-26T00:02:09;91102.97;;;7.29;100.00
37206;BME280;23099;42.636;23.198;2023-04-26T00:04:36;91096.94;;;7.02;100.00
37206;BME280;23099;42.636;23.198;2023-04-26T00:07:04;91102.91;;;6.95;100.00
37206;BME280;23099;42.636;23.198;2023-04-26T00:09:31;91091.13;;;6.66;100.00
37206;BME280;23099;42.636;23.198;2023-04-26T00:11:59;91088.06;;;6.64;100.00
37206;BME280;23099;42.636;23.198;2023-04-26T00:14:26;91078.22;;;6.65;100.00
37206;BME280;23099;42.636;23.198;2023-04-26T00:16:53;91077.78;;;6.59;100.00
37206;BME280;23099;42.636;23.198;2023-04-26T00:19:19;91082.00;;;6.64;100.00
37206;BME280;23099;42.636;23.198;2023-04-26T00:21:46;91084.00;;;6.44;100.00
37206;BME280;23099;42.636;23.198;2023-04-26T00:24:14;91074.66;;;6.54;100.00
37206;BME280;23099;42.636;23.198;2023-04-26T00:26:41;91073.13;;;6.53;100.00
37206;BME280;23099;42.636;23.198;2023-04-26T00:29:07;91066.31;;;6.55;100.00
37206;BME280;23099;42.636;23.198;2023-04-26T00:31:34;91065.22;;;6.56;100.00
37206;BME280;23099;42.636;23.198;2023-04-26T00:34:01;91062.13;;;6.54;100.00
37206;BME280;23099;42.636;23.198;2023-04-26T00:36:27;91067.59;;;6.38;100.00
37206;BME280;23099;42.636;23.198;2023-04-26T00:38:54;91071.97;;;6.27;100.00
37206;BME280;23099;42.636;23.198;2023-04-26T00:41:22;91069.81;;;6.10;100.00
37206;BME280;23099;42.636;23.198;2023-04-26T00:43:49;91069.47;;;6.12;100.00
37206;BME280;23099;42.636;23.198;2023-04-26T00:46:16;91073.66;;;6.13;100.00
37206;BME280;23099;42.636;23.198;2023-04-26T00:48:43;91076.94;;;6.06;100.00
37206;BME280;23099;42.636;23.198;2023-04-26T00:51:10;91072.47;;;6.10;100.00
37206;BME280;23099;42.636;23.198;2023-04-26T00:53:37;91073.59;;;6.09;100.00
37206;BME280;23099;42.636;23.198;2023-04-26T00:56:06;91074.13;;;6.18;100.00
37206;BME280;23099;42.636;23.198;2023-04-26T00:58:36;91072.63;;;6.21;100.00
37206;BME280;23099;42.636;23.198;2023-04-26T01:01:03;91078.69;;;6.21;100.00
37206;BME280;23099;42.636;23.198;2023-04-26T01:03:30;91080.50;;;6.14;100.00
37206;BME280;23099;42.636;23.198;2023-04-26T01:05:57;91084.97;;;6.10;100.00
37206;BME280;23099;42.636;23.198;2023-04-26T01:08:24;91086.63;;;5.95;100.00
37206;BME280;23099;42.636;23.198;2023-04-26T01:10:51;91080.84;;;5.70;100.00
37206;BME280;23099;42.636;23.198;2023-04-26T01:13:18;91078.03;;;5.82;100.00
37206;BME280;23099;42.636;23.198;2023-04-26T01:15:47;91066.38;;;5.87;100.00
37206;BME280;23099;42.636;23.198;2023-04-26T01:18:14;91060.41;;;5.90;100.00
37206;BME280;23099;42.636;23.198;2023-04-26T01:20:41;91053.13;;;5.87;100.00
37206;BME280;23099;42.636;23.198;2023-04-26T01:23:09;91043.22;;;5.84;100.00
37206;BME280;23099;42.636;23.198;2023-04-26T01:25:36;91058.09;;;5.88;100.00
37206;BME280;23099;42.636;23.198;2023-04-26T01:28:03;91074.84;;;5.73;100.00
37206;BME280;23099;42.636;23.198;2023-04-26T01:30:30;91076.44;;;5.78;100.00
37206;BME280;23099;42.636;23.198;2023-04-26T01:32:57;91079.22;;;5.62;100.00
37206;BME280;23099;42.636;23.198;2023-04-26T01:35:23;91082.16;;;5.57;100.00
37206;BME280;23099;42.636;23.198;2023-04-26T01:37:50;91087.88;;;5.59;100.00
37206;BME280;23099;42.636;23.198;2023-04-26T01:40:18;91084.03;;;5.56;100.00
37206;BME280;23099;42.636;23.198;2023-04-26T01:42:45;91080.69;;;5.59;100.00
37206;BME280;23099;42.636;23.198;2023-04-26T01:45:12;91079.31;;;5.69;100.00
37206;BME280;23099;42.636;23.198;2023-04-26T01:47:38;91084.34;;;5.74;100.00
37206;BME280;23099;42.636;23.198;2023-04-26T01:50:06;91077.59;;;5.77;100.00
37206;BME280;23099;42.636;23.198;2023-04-26T01:52:34;91074.56;;;5.78;100.00
37206;BME280;23099;42.636;23.198;2023-04-26T01:55:01;91070.00;;;5.79;100.00
37206;BME280;23099;42.636;23.198;2023-04-26T01:57:29;91059.81;;;5.81;100.00
37206;BME280;23099;42.636;23.198;2023-04-26T01:59:55;91061.97;;;5.72;100.00
37206;BME280;23099;42.636;23.198;2023-04-26T02:02:23;91058.53;;;5.71;100.00
37206;BME280;23099;42.636;23.198;2023-04-26T02:04:50;91056.59;;;5.68;100.00
37206;BME280;23099;42.636;23.198;2023-04-26T02:07:17;91057.41;;;5.72;100.00
37206;BME280;23099;42.636;23.198;2023-04-26T02:09:44;91055.28;;;5.81;100.00
37206;BME280;23099;42.636;23.198;2023-04-26T02:12:10;91057.75;;;5.90;100.00
37206;BME280;23099;42.636;23.198;2023-04-26T02:14:38;91053.06;;;5.83;100.00
37206;BME280;23099;42.636;23.198;2023-04-26T02:17:05;91052.34;;;5.86;100.00
37206;BME280;23099;42.636;23.198;2023-04-26T02:19:33;91051.94;;;5.61;100.00
37206;BME280;23099;42.636;23.198;2023-04-26T02:22:00;91041.91;;;5.51;100.00
37206;BME280;23099;42.636;23.198;2023-04-26T02:24:26;91058.34;;;5.60;100.00
37206;BME280;23099;42.636;23.198;2023-04-26T02:26:54;91053.06;;;5.60;100.00
37206;BME280;23099;42.636;23.198;2023-04-26T02:29:24;91044.19;;;5.53;100.00
37206;BME280;23099;42.636;23.198;2023-04-26T02:31:52;91047.34;;;5.58;100.00
37206;BME280;23099;42.636;23.198;2023-04-26T02:34:19;91049.75;;;5.67;100.00
37206;BME280;23099;42.636;23.198;2023-04-26T02:36:46;91054.47;;;5.77;100.00
37206;BME280;23099;42.636;23.198;2023-04-26T02:39:12;91045.81;;;5.80;100.00
37206;BME280;23099;42.636;23.198;2023-04-26T02:41:39;91035.31;;;5.87;100.00
37206;BME280;23099;42.636;23.198;2023-04-26T02:44:06;91034.91;;;6.08;100.00
37206;BME280;23099;42.636;23.198;2023-04-26T02:46:33;91026.72;;;6.17;100.00
37206;BME280;23099;42.636;23.198;2023-04-26T02:49:01;91014.84;;;6.33;100.00
37206;BME280;23099;42.636;23.198;2023-04-26T02:51:28;91010.84;;;6.47;100.00
37206;BME280;23099;42.636;23.198;2023-04-26T02:53:54;91016.94;;;6.47;100.00
37206;BME280;23099;42.636;23.198;2023-04-26T02:56:21;91013.94;;;6.49;100.00
37206;BME280;23099;42.636;23.198;2023-04-26T02:58:48;91017.38;;;6.53;100.00
37206;BME280;23099;42.636;23.198;2023-04-26T03:01:14;91010.59;;;6.55;100.00
37206;BME280;23099;42.636;23.198;2023-04-26T03:03:42;91007.09;;;6.48;100.00
37206;BME280;23099;42.636;23.198;2023-04-26T03:06:10;91002.56;;;6.52;100.00
37206;BME280;23099;42.636;23.198;2023-04-26T03:08:36;91000.03;;;6.59;100.00
37206;BME280;23099;42.636;23.198;2023-04-26T03:11:03;90997.38;;;6.59;100.00
37206;BME280;23099;42.636;23.198;2023-04-26T03:13:31;90998.91;;;6.60;100.00
37206;BME280;23099;42.636;23.198;2023-04-26T03:15:57;91001.59;;;6.63;100.00
37206;BME280;23099;42.636;23.198;2023-04-26T03:18:24;91002.75;;;6.66;100.00
37206;BME280;23099;42.636;23.198;2023-04-26T03:20:51;91002.09;;;6.72;100.00
37206;BME280;23099;42.636;23.198;2023-04-26T03:23:19;91002.91;;;6.77;100.00
37206;BME280;23099;42.636;23.198;2023-04-26T03:25:48;91003.25;;;6.75;100.00
37206;BME280;23099;42.636;23.198;2023-04-26T03:28:15;91008.53;;;6.71;100.00
37206;BME280;23099;42.636;23.198;2023-04-26T03:30:41;91007.03;;;6.74;100.00
37206;BME280;23099;42.636;23.198;2023-04-26T03:33:08;91004.81;;;6.76;100.00
37206;BME280;23099;42.636;23.198;2023-04-26T03:35:35;91011.53;;;6.70;100.00
37206;BME280;23099;42.636;23.198;2023-04-26T03:38:02;91023.69;;;6.71;100.00
37206;BME280;23099;42.636;23.198;2023-04-26T03:40:30;91014.59;;;6.72;100.00
37206;BME280;23099;42.636;23.198;2023-04-26T03:42:56;91008.22;;;6.77;100.00
37206;BME280;23099;42.636;23.198;2023-04-26T03:45:23;91019.16;;;6.71;100.00
37206;BME280;23099;42.636;23.198;2023-04-26T03:47:51;91008.69;;;6.56;100.00
37206;BME280;23099;42.636;23.198;2023-04-26T03:50:18;91022.44;;;6.61;100.00
37206;BME280;23099;42.636;23.198;2023-04-26T03:52:45;91025.53;;;6.67;100.00
37206;BME280;23099;42.636;23.198;2023-04-26T03:55:12;91036.84;;;6.64;100.00
37206;BME280;23099;42.636;23.198;2023-04-26T03:57:40;91032.28;;;6.61;100.00
37206;BME280;23099;42.636;23.198;2023-04-26T04:00:07;91036.16;;;6.67;100.00
37206;BME280;23099;42.636;23.198;2023-04-26T04:02:37;91037.03;;;6.48;100.00
37206;BME280;23099;42.636;23.198;2023-04-26T04:05:04;91033.81;;;6.62;100.00
37206;BME280;23099;42.636;23.198;2023-04-26T04:07:32;91033.53;;;6.70;100.00
37206;BME280;23099;42.636;23.198;2023-04-26T04:09:59;91036.66;;;6.76;100.00
37206;BME280;23099;42.636;23.198;2023-04-26T04:12:26;91038.63;;;6.83;100.00
37206;BME280;23099;42.636;23.198;2023-04-26T04:14:54;91040.94;;;6.84;100.00
37206;BME280;23099;42.636;23.198;2023-04-26T04:17:20;91035.66;;;6.88;100.00
37206;BME280;23099;42.636;23.198;2023-04-26T04:19:47;91049.06;;;6.98;100.00
37206;BME280;23099;42.636;23.198;2023-04-26T04:22:14;91049.19;;;7.05;100.00
37206;BME280;23099;42.636;23.198;2023-04-26T04:24:41;91040.09;;;7.06;100.00
37206;BME280;23099;42.636;23.198;2023-04-26T04:27:08;91045.41;;;7.10;100.00
37206;BME280;23099;42.636;23.198;2023-04-26T04:29:35;91049.72;;;7.18;100.00
37206;BME280;23099;42.636;23.198;2023-04-26T04:32:04;91051.97;;;7.16;100.00
37206;BME280;23099;42.636;23.198;2023-04-26T04:34:32;91046.28;;;7.18;100.00
37206;BME280;23099;42.636;23.198;2023-04-26T04:37:00;91055.03;;;7.22;100.00
37206;BME280;23099;42.636;23.198;2023-04-26T04:39:27;91060.75;;;7.24;100.00
37206;BME280;23099;42.636;23.198;2023-04-26T04:41:53;91053.66;;;7.31;100.00
37206;BME280;23099;42.636;23.198;2023-04-26T04:44:20;91064.41;;;7.42;100.00
37206;BME280;23099;42.636;23.198;2023-04-26T04:46:48;91064.09;;;7.47;100.00
37206;BME280;23099;42.636;23.198;2023-04-26T04:49:16;91062.97;;;7.48;100.00
37206;BME280;23099;42.636;23.198;2023-04-26T04:51:43;91056.94;;;7.55;100.00
37206;BME280;23099;42.636;23.198;2023-04-26T04:54:10;91051.25;;;7.56;100.00
37206;BME280;23099;42.636;23.198;2023-04-26T04:56:37;91058.19;;;7.64;100.00
37206;BME280;23099;42.636;23.198;2023-04-26T04:59:05;91055.56;;;7.68;100.00
37206;BME280;23099;42.636;23.198;2023-04-26T05:01:32;91064.78;;;7.77;100.00
37206;BME280;23099;42.636;23.198;2023-04-26T05:04:00;91063.31;;;7.84;100.00
37206;BME280;23099;42.636;23.198;2023-04-26T05:06:29;91057.56;;;7.78;100.00
37206;BME280;23099;42.636;23.198;2023-04-26T05:08:56;91062.53;;;7.83;100.00
37206;BME280;23099;42.636;23.198;2023-04-26T05:11:23;91058.34;;;7.82;100.00
37206;BME280;23099;42.636;23.198;2023-04-26T05:13:50;91056.41;;;7.75;100.00
37206;BME280;23099;42.636;23.198;2023-04-26T05:16:17;91061.75;;;7.79;100.00
37206;BME280;23099;42.636;23.198;2023-04-26T05:18:43;91067.50;;;7.85;100.00
37206;BME280;23099;42.636;23.198;2023-04-26T05:21:10;91069.88;;;7.97;100.00
37206;BME280;23099;42.636;23.198;2023-04-26T05:23:38;91066.94;;;8.09;100.00
37206;BME280;23099;42.636;23.198;2023-04-26T05:26:05;91066.69;;;8.21;100.00
37206;BME280;23099;42.636;23.198;2023-04-26T05:28:33;91058.66;;;8.14;100.00
37206;BME280;23099;42.636;23.198;2023-04-26T05:30:59;91071.31;;;8.28;100.00
37206;BME280;23099;42.636;23.198;2023-04-26T05:33:26;91066.38;;;8.30;100.00
37206;BME280;23099;42.636;23.198;2023-04-26T05:35:53;91069.38;;;8.25;100.00
37206;BME280;23099;42.636;23.198;2023-04-26T05:38:22;91076.00;;;8.41;100.00
37206;BME280;23099;42.636;23.198;2023-04-26T05:40:50;91071.34;;;8.31;100.00
37206;BME280;23099;42.636;23.198;2023-04-26T05:43:17;91072.94;;;8.39;100.00
37206;BME280;23099;42.636;23.198;2023-04-26T05:45:49;91082.94;;;8.49;100.00
37206;BME280;23099;42.636;23.198;2023-04-26T05:48:17;91074.94;;;8.49;100.00
37206;BME280;23099;42.636;23.198;2023-04-26T05:50:43;91076.31;;;8.33;100.00
37206;BME280;23099;42.636;23.198;2023-04-26T05:53:10;91080.63;;;8.48;100.00
37206;BME280;23099;42.636;23.198;2023-04-26T05:55:37;91083.03;;;8.64;100.00
37206;BME280;23099;42.636;23.198;2023-04-26T05:58:05;91073.56;;;8.73;100.00
37206;BME280;23099;42.636;23.198;2023-04-26T06:00:32;91080.88;;;8.80;100.00
37206;BME280;23099;42.636;23.198;2023-04-26T06:02:58;91080.13;;;8.86;100.00
37206;BME280;23099;42.636;23.198;2023-04-26T06:05:25;91089.69;;;8.91;100.00
37206;BME280;23099;42.636;23.198;2023-04-26T06:07:52;91087.09;;;9.05;100.00
37206;BME280;23099;42.636;23.198;2023-04-26T06:10:19;91087.88;;;9.13;100.00
37206;BME280;23099;42.636;23.198;2023-04-26T06:12:46;91087.56;;;9.21;100.00
37206;BME280;23099;42.636;23.198;2023-04-26T06:15:14;91084.13;;;9.25;100.00
37206;BME280;23099;42.636;23.198;2023-04-26T06:17:41;91091.84;;;9.44;100.00
37206;BME280;23099;42.636;23.198;2023-04-26T06:20:08;91084.63;;;9.48;100.00
37206;BME280;23099;42.636;23.198;2023-04-26T06:22:35;91091.94;;;9.62;98.48
37206;BME280;23099;42.636;23.198;2023-04-26T06:25:03;91087.75;;;9.71;98.65
37206;BME280;23099;42.636;23.198;2023-04-26T06:27:31;91097.28;;;9.69;92.72
37206;BME280;23099;42.636;23.198;2023-04-26T06:29:57;91103.31;;;9.48;92.21
37206;BME280;23099;42.636;23.198;2023-04-26T06:32:26;91111.69;;;9.46;91.52
37206;BME280;23099;42.636;23.198;2023-04-26T06:34:52;91110.44;;;9.26;91.44
37206;BME280;23099;42.636;23.198;2023-04-26T06:37:19;91104.78;;;9.35;91.11
37206;BME280;23099;42.636;23.198;2023-04-26T06:39:46;91108.63;;;9.48;91.30
37206;BME280;23099;42.636;23.198;2023-04-26T06:42:12;91101.41;;;9.48;91.26
37206;BME280;23099;42.636;23.198;2023-04-26T06:44:39;91103.38;;;9.62;91.18
37206;BME280;23099;42.636;23.198;2023-04-26T06:47:06;91115.47;;;9.45;89.72
37206;BME280;23099;42.636;23.198;2023-04-26T06:49:35;91111.31;;;9.51;86.14
37206;BME280;23099;42.636;23.198;2023-04-26T06:52:02;91114.81;;;9.63;87.08
37206;BME280;23099;42.636;23.198;2023-04-26T06:54:31;91121.28;;;9.62;88.89
37206;BME280;23099;42.636;23.198;2023-04-26T06:56:57;91125.13;;;9.75;83.92
37206;BME280;23099;42.636;23.198;2023-04-26T06:59:24;91127.81;;;9.78;84.14
37206;BME280;23099;42.636;23.198;2023-04-26T07:01:51;91123.63;;;9.81;83.63
37206;BME280;23099;42.636;23.198;2023-04-26T07:04:18;91125.56;;;9.91;84.06
37206;BME280;23099;42.636;23.198;2023-04-26T07:06:46;91125.16;;;9.78;79.16
37206;BME280;23099;42.636;23.198;2023-04-26T07:09:13;91135.03;;;9.74;78.52
37206;BME280;23099;42.636;23.198;2023-04-26T07:11:40;91142.28;;;9.74;80.34
37206;BME280;23099;42.636;23.198;2023-04-26T07:14:06;91141.19;;;9.89;84.03
37206;BME280;23099;42.636;23.198;2023-04-26T07:16:33;91143.50;;;9.90;82.05
37206;BME280;23099;42.636;23.198;2023-04-26T07:19:00;91134.31;;;9.88;82.51
37206;BME280;23099;42.636;23.198;2023-04-26T07:21:26;91132.38;;;9.81;79.73
37206;BME280;23099;42.636;23.198;2023-04-26T07:23:55;91141.50;;;9.73;74.92
37206;BME280;23099;42.636;23.198;2023-04-26T07:26:22;91143.41;;;9.66;75.71
37206;BME280;23099;42.636;23.198;2023-04-26T07:28:49;91136.16;;;9.66;77.82
37206;BME280;23099;42.636;23.198;2023-04-26T07:31:16;91134.25;;;9.70;76.75
37206;BME280;23099;42.636;23.198;2023-04-26T07:33:43;91136.94;;;9.74;75.23
37206;BME280;23099;42.636;23.198;2023-04-26T07:36:09;91145.72;;;9.74;75.04
37206;BME280;23099;42.636;23.198;2023-04-26T07:38:36;91151.84;;;9.78;76.70
37206;BME280;23099;42.636;23.198;2023-04-26T07:41:04;91145.72;;;9.78;76.51
37206;BME280;23099;42.636;23.198;2023-04-26T07:43:31;91145.38;;;9.86;74.79
37206;BME280;23099;42.636;23.198;2023-04-26T07:45:58;91148.47;;;9.99;76.77
37206;BME280;23099;42.636;23.198;2023-04-26T07:48:26;91147.75;;;10.13;74.32
37206;BME280;23099;42.636;23.198;2023-04-26T07:50:53;91161.47;;;10.15;70.71
37206;BME280;23099;42.636;23.198;2023-04-26T07:53:20;91156.91;;;10.15;71.42
37206;BME280;23099;42.636;23.198;2023-04-26T07:55:49;91155.38;;;10.07;68.31
37206;BME280;23099;42.636;23.198;2023-04-26T07:58:17;91152.31;;;10.12;68.88
37206;BME280;23099;42.636;23.198;2023-04-26T08:00:44;91154.91;;;9.80;74.15
37206;BME280;23099;42.636;23.198;2023-04-26T08:03:13;91160.28;;;9.91;77.00
37206;BME280;23099;42.636;23.198;2023-04-26T08:05:40;91159.91;;;10.00;76.24
37206;BME280;23099;42.636;23.198;2023-04-26T08:08:07;91158.00;;;10.00;75.48
37206;BME280;23099;42.636;23.198;2023-04-26T08:10:34;91149.22;;;10.00;74.41
37206;BME280;23099;42.636;23.198;2023-04-26T08:13:00;91155.31;;;9.93;75.63
37206;BME280;23099;42.636;23.198;2023-04-26T08:15:29;91149.22;;;9.96;76.41
37206;BME280;23099;42.636;23.198;2023-04-26T08:17:56;91154.59;;;10.03;75.15
37206;BME280;23099;42.636;23.198;2023-04-26T08:20:23;91155.81;;;10.20;74.49
37206;BME280;23099;42.636;23.198;2023-04-26T08:22:54;91156.19;;;10.25;71.20
37206;BME280;23099;42.636;23.198;2023-04-26T08:25:21;91152.44;;;10.51;76.52
37206;BME280;23099;42.636;23.198;2023-04-26T08:27:48;91144.03;;;10.46;74.37
37206;BME280;23099;42.636;23.198;2023-04-26T08:30:15;91152.44;;;10.55;75.07
37206;BME280;23099;42.636;23.198;2023-04-26T08:32:43;91147.88;;;10.52;74.75
37206;BME280;23099;42.636;23.198;2023-04-26T08:35:10;91152.06;;;10.56;74.62
37206;BME280;23099;42.636;23.198;2023-04-26T08:37:37;91153.22;;;10.80;74.85
37206;BME280;23099;42.636;23.198;2023-04-26T08:40:05;91156.66;;;10.88;69.98
37206;BME280;23099;42.636;23.198;2023-04-26T08:42:38;91153.22;;;10.98;70.65
37206;BME280;23099;42.636;23.198;2023-04-26T08:45:05;91150.16;;;11.14;72.33
37206;BME280;23099;42.636;23.198;2023-04-26T08:47:37;91153.59;;;11.00;69.88
37206;BME280;23099;42.636;23.198;2023-04-26T08:50:09;91160.84;;;11.17;70.92
37206;BME280;23099;42.636;23.198;2023-04-26T08:52:37;91164.31;;;11.11;68.76
37206;BME280;23099;42.636;23.198;2023-04-26T08:55:06;91153.22;;;10.98;71.01
37206;BME280;23099;42.636;23.198;2023-04-26T08:57:34;91153.59;;;11.04;72.20
37206;BME280;23099;42.636;23.198;2023-04-26T09:00:01;91143.66;;;11.11;69.48
37206;BME280;23099;42.636;23.198;2023-04-26T09:02:30;91150.16;;;11.24;71.46
37206;BME280;23099;42.636;23.198;2023-04-26T09:04:57;91147.09;;;11.22;68.79
37206;BME280;23099;42.636;23.198;2023-04-26T09:07:30;91155.09;;;11.26;70.62
37206;BME280;23099;42.636;23.198;2023-04-26T09:09:58;91160.84;;;11.17;70.92
37206;BME280;23099;42.636;23.198;2023-04-26T09:12:26;91160.06;;;11.13;68.59
37206;BME280;23099;42.636;23.198;2023-04-26T09:14:52;91158.53;;;11.12;70.13
37206;BME280;23099;42.636;23.198;2023-04-26T09:17:24;91163.53;;;11.10;70.42
37206;BME280;23099;42.636;23.198;2023-04-26T09:19:51;91158.19;;;10.96;69.58
37206;BME280;23099;42.636;23.198;2023-04-26T09:22:28;91154.34;;;11.11;71.88
37206;BME280;23099;42.636;23.198;2023-04-26T09:24:56;91163.91;;;11.12;65.41
37206;BME280;23099;42.636;23.198;2023-04-26T09:27:31;91158.97;;;11.11;69.60
37206;BME280;23099;42.636;23.198;2023-04-26T09:30:01;91165.44;;;11.06;63.54
37206;BME280;23099;42.636;23.198;2023-04-26T09:32:43;91160.44;;;11.37;67.47
37206;BME280;23099;42.636;23.198;2023-04-26T09:35:21;91158.06;;;11.78;68.60
37206;BME280;23099;42.636;23.198;2023-04-26T09:37:52;91160.72;;;11.88;66.33
37206;BME280;23099;42.636;23.198;2023-04-26T09:40:21;91156.09;;;11.96;66.20
37206;BME280;23099;42.636;23.198;2023-04-26T09:42:59;91150.72;;;11.99;64.07
37206;BME280;23099;42.636;23.198;2023-04-26T09:45:28;91142.31;;;11.97;66.98
37206;BME280;23099;42.636;23.198;2023-04-26T09:47:55;91140.81;;;11.93;62.89
37206;BME280;23099;42.636;23.198;2023-04-26T09:50:37;91138.84;;;12.04;62.88
37206;BME280;23099;42.636;23.198;2023-04-26T09:53:05;91147.28;;;11.99;63.09
37206;BME280;23099;42.636;23.198;2023-04-26T09:55:32;91149.25;;;11.88;64.31
37206;BME280;23099;42.636;23.198;2023-04-26T09:58:07;91142.66;;;12.07;64.18
37206;BME280;23099;42.636;23.198;2023-04-26T10:00:36;91136.31;;;12.52;59.97
37206;BME280;23099;42.636;23.198;2023-04-26T10:03:04;91126.47;;;12.87;62.43
37206;BME280;23099;42.636;23.198;2023-04-26T10:05:33;91139.44;;;12.95;55.23
37206;BME280;23099;42.636;23.198;2023-04-26T10:08:00;91132.56;;;12.94;55.30
37206;BME280;23099;42.636;23.198;2023-04-26T10:10:29;91140.38;;;13.23;58.00
37206;BME280;23099;42.636;23.198;2023-04-26T10:12:56;91142.16;;;12.92;55.12
37206;BME280;23099;42.636;23.198;2023-04-26T10:15:23;91134.97;;;12.78;57.19
37206;BME280;23099;42.636;23.198;2023-04-26T10:17:50;91131.16;;;12.72;55.55
37206;BME280;23099;42.636;23.198;2023-04-26T10:20:18;91141.22;;;12.61;54.23
37206;BME280;23099;42.636;23.198;2023-04-26T10:22:55;91138.34;;;12.27;55.49
37206;BME280;23099;42.636;23.198;2023-04-26T10:25:35;91132.50;;;12.46;59.35
37206;BME280;23099;42.636;23.198;2023-04-26T10:28:03;91132.50;;;12.46;58.63
37206;BME280;23099;42.636;23.198;2023-04-26T10:30:30;91136.72;;;12.44;53.73
37206;BME280;23099;42.636;23.198;2023-04-26T10:33:15;91141.19;;;12.64;56.47
37206;BME280;23099;42.636;23.198;2023-04-26T10:36:06;91141.91;;;12.72;56.02
37206;BME280;23099;42.636;23.198;2023-04-26T10:38:34;91146.47;;;12.79;55.31
37206;BME280;23099;42.636;23.198;2023-04-26T10:41:30;91138.84;;;12.70;55.27
37206;BME280;23099;42.636;23.198;2023-04-26T10:43:58;91142.28;;;12.70;59.79
37206;BME280;23099;42.636;23.198;2023-04-26T10:46:36;91136.91;;;12.74;56.48
37206;BME280;23099;42.636;23.198;2023-04-26T10:49:17;91124.22;;;12.82;57.56
37206;BME280;23099;42.636;23.198;2023-04-26T10:52:09;91137.13;;;12.97;59.09
37206;BME280;23099;42.636;23.198;2023-04-26T10:55:01;91142.28;;;12.74;53.93
37206;BME280;23099;42.636;23.198;2023-04-26T10:57:48;91144.53;;;12.79;53.96
37206;BME280;23099;42.636;23.198;2023-04-26T11:00:24;91141.78;;;12.86;54.13
37206;BME280;23099;42.636;23.198;2023-04-26T11:03:02;91163.56;;;12.36;55.48
37206;BME280;23099;42.636;23.198;2023-04-26T11:05:34;91149.94;;;12.10;53.60
37206;BME280;23099;42.636;23.198;2023-04-26T11:08:05;91147.28;;;11.99;54.03
37206;BME280;23099;42.636;23.198;2023-04-26T11:10:36;91150.31;;;12.12;52.99
37206;BME280;23099;42.636;23.198;2023-04-26T11:13:04;91139.53;;;12.26;49.95
37206;BME280;23099;42.636;23.198;2023-04-26T11:15:31;91143.69;;;12.27;51.13
37206;BME280;23099;42.636;23.198;2023-04-26T11:18:01;91134.09;;;12.36;49.29
37206;BME280;23099;42.636;23.198;2023-04-26T11:20:28;91130.56;;;12.50;50.80
37206;BME280;23099;42.636;23.198;2023-04-26T11:22:56;91134.31;;;12.63;49.53
37206;BME280;23099;42.636;23.198;2023-04-26T11:25:24;91134.31;;;12.63;51.95
37206;BME280;23099;42.636;23.198;2023-04-26T11:27:57;91145.63;;;12.85;51.97
37206;BME280;23099;42.636;23.198;2023-04-26T11:30:27;91137.47;;;12.99;50.54
37206;BME280;23099;42.636;23.198;2023-04-26T11:32:53;91137.16;;;12.94;50.13
37206;BME280;23099;42.636;23.198;2023-04-26T11:35:21;91137.81;;;13.05;51.03
37206;BME280;23099;42.636;23.198;2023-04-26T11:37:50;91139.69;;;13.12;50.74
37206;BME280;23099;42.636;23.198;2023-04-26T11:40:16;91145.97;;;12.91;49.61
37206;BME280;23099;42.636;23.198;2023-04-26T11:42:43;91142.72;;;12.65;49.74
37206;BME280;23099;42.636;23.198;2023-04-26T11:45:11;91139.22;;;12.72;49.75
37206;BME280;23099;42.636;23.198;2023-04-26T11:47:39;91148.00;;;12.80;50.27
37206;BME280;23099;42.636;23.198;2023-04-26T11:50:07;91149.91;;;12.79;50.72
37206;BME280;23099;42.636;23.198;2023-04-26T11:52:34;91133.34;;;12.91;52.15
37206;BME280;23099;42.636;23.198;2023-04-26T11:55:01;91139.88;;;12.87;51.10
37206;BME280;23099;42.636;23.198;2023-04-26T11:57:30;91141.78;;;12.90;51.26
37206;BME280;23099;42.636;23.198;2023-04-26T12:00:07;91138.88;;;12.66;51.21
37206;BME280;23099;42.636;23.198;2023-04-26T12:02:35;91148.06;;;12.69;53.50
37206;BME280;23099;42.636;23.198;2023-04-26T12:05:04;91141.59;;;12.63;53.83
37206;BME280;23099;42.636;23.198;2023-04-26T12:07:34;91146.03;;;12.21;52.10
37206;BME280;23099;42.636;23.198;2023-04-26T12:10:14;91138.59;;;12.54;51.96
37206;BME280;23099;42.636;23.198;2023-04-26T12:12:47;91142.28;;;12.74;50.32
37206;BME280;23099;42.636;23.198;2023-04-26T12:15:14;91138.97;;;13.04;52.73
37206;BME280;23099;42.636;23.198;2023-04-26T12:17:51;91136.69;;;13.02;46.48
37206;BME280;23099;42.636;23.198;2023-04-26T12:20:25;91130.25;;;12.93;46.99
37206;BME280;23099;42.636;23.198;2023-04-26T12:23:13;91136.38;;;12.97;48.58
37206;BME280;23099;42.636;23.198;2023-04-26T12:25:50;91128.47;;;12.75;46.45
37206;BME280;23099;42.636;23.198;2023-04-26T12:28:17;91125.41;;;12.77;48.37
37206;BME280;23099;42.636;23.198;2023-04-26T12:30:44;91128.44;;;12.79;48.20
37206;BME280;23099;42.636;23.198;2023-04-26T12:33:11;91133.16;;;12.61;50.48
37206;BME280;23099;42.636;23.198;2023-04-26T12:35:39;91130.50;;;12.61;46.04
37206;BME280;23099;42.636;23.198;2023-04-26T12:38:06;91124.25;;;12.74;47.88
37206;BME280;23099;42.636;23.198;2023-04-26T12:40:32;91115.81;;;12.80;47.93
37206;BME280;23099;42.636;23.198;2023-04-26T12:42:59;91127.56;;;12.96;47.73
37206;BME280;23099;42.636;23.198;2023-04-26T12:45:26;91124.34;;;13.16;49.67
37206;BME280;23099;42.636;23.198;2023-04-26T12:47:53;91110.94;;;13.16;47.44
37206;BME280;23099;42.636;23.198;2023-04-26T12:50:20;91124.38;;;13.12;48.42
37206;BME280;23099;42.636;23.198;2023-04-26T12:52:48;91125.09;;;13.16;50.25
37206;BME280;23099;42.636;23.198;2023-04-26T12:55:16;91100.97;;;13.13;48.78
37206;BME280;23099;42.636;23.198;2023-04-26T12:57:44;91113.81;;;13.35;48.41